createdAt,value
2019-04-07T00:01:35.628Z,946.1
2019-04-07T00:11:38.968Z,946.2
2019-04-07T00:21:42.578Z,946.2
2019-04-07T00:31:45.909Z,946.3
2019-04-07T00:41:49.396Z,946.4
2019-04-07T00:51:53.171Z,946.4
2019-04-07T01:01:56.975Z,946.6
2019-04-07T01:12:00.418Z,946.7
2019-04-07T01:22:04.188Z,946.7
2019-04-07T01:32:08.885Z,946.7
2019-04-07T01:42:12.766Z,946.7
2019-04-07T01:52:16.445Z,946.7
2019-04-07T02:02:20.385Z,946.6
2019-04-07T02:12:23.729Z,946.7
2019-04-07T02:22:27.079Z,946.8
2019-04-07T02:32:31.648Z,946.8
2019-04-07T02:42:35.070Z,946.9
2019-04-07T02:52:39.182Z,947
2019-04-07T03:02:42.579Z,947.1
2019-04-07T03:12:46.915Z,947.1
2019-04-07T03:22:51.071Z,947.2
2019-04-07T03:33:02.549Z,947.1
2019-04-07T03:43:07.336Z,947.3
2019-04-07T03:53:10.679Z,947.4
2019-04-07T04:03:15.920Z,947.5
2019-04-07T04:13:20.410Z,947.3
2019-04-07T04:23:23.764Z,947.7
2019-04-07T04:33:27.769Z,947.7
2019-04-07T04:43:32.038Z,947.8
2019-04-07T04:53:35.340Z,947.8
2019-04-07T05:03:38.672Z,947.6
2019-04-07T05:13:42.394Z,947.8
2019-04-07T05:23:46.259Z,948
2019-04-07T05:33:50.082Z,947.9
2019-04-07T05:43:53.861Z,947.9
2019-04-07T05:53:57.334Z,947.9
2019-04-07T06:04:02.322Z,948.2
2019-04-07T06:14:06.039Z,948.3
2019-04-07T06:24:10.138Z,948.2
2019-04-07T06:34:13.933Z,948.2
2019-04-07T06:44:24.400Z,948
2019-04-07T06:54:27.728Z,947.7
2019-04-07T07:04:31.348Z,947.9
2019-04-07T07:14:47.520Z,947.9
2019-04-07T07:25:01.412Z,948.1
2019-04-07T07:35:05.328Z,948.2
2019-04-07T07:45:14.224Z,948.2
2019-04-07T07:55:17.553Z,948.1
2019-04-07T08:05:21.714Z,948
2019-04-07T08:15:34.674Z,947.9
2019-04-07T08:25:38.807Z,947.9
2019-04-07T08:35:43.681Z,948
2019-04-07T08:45:47.570Z,948
2019-04-07T08:55:55.461Z,948.1
2019-04-07T09:05:58.858Z,948
2019-04-07T09:16:03.661Z,947.8
2019-04-07T09:26:12.464Z,947.5
2019-04-07T09:36:15.782Z,947.3
2019-04-07T09:46:20.369Z,947.3
2019-04-07T09:56:31.732Z,947.2
2019-04-07T10:06:39.883Z,947.2
2019-04-07T10:16:43.226Z,947.1
2019-04-07T10:26:47.407Z,947.1
2019-04-07T10:36:51.116Z,947.3
2019-04-07T10:46:55.174Z,947.3
2019-04-07T10:56:58.502Z,947.4
2019-04-07T11:07:04.095Z,947.6
2019-04-07T11:17:08.335Z,947.6
2019-04-07T11:27:13.194Z,947.8
2019-04-07T11:37:16.542Z,947.8
2019-04-07T11:47:20.923Z,947.7
2019-04-07T11:57:24.265Z,947.5
2019-04-07T12:07:27.604Z,947.5
2019-04-07T12:17:30.941Z,947.3
2019-04-07T12:27:35.838Z,947.3
2019-04-07T12:37:44.721Z,947.3
2019-04-07T12:47:48.072Z,947.3
2019-04-07T12:57:52.297Z,947.3
2019-04-07T13:07:56.761Z,947.2
2019-04-07T13:18:10.667Z,947.2
2019-04-07T13:28:16.792Z,947.2
2019-04-07T13:38:22.092Z,947.2
2019-04-07T13:48:26.290Z,947.1
2019-04-07T13:58:36.971Z,947.1
2019-04-07T14:08:41.548Z,947.2
2019-04-07T14:18:54.693Z,947.1
2019-04-07T14:29:00.017Z,947.1
2019-04-07T14:39:05.254Z,947.1
2019-04-07T14:49:16.219Z,947.1
2019-04-07T14:59:28.877Z,947.1
2019-04-07T15:09:33.031Z,947.2
2019-04-07T15:19:36.476Z,947.2
2019-04-07T15:29:47.160Z,947.3
2019-04-07T15:39:51.862Z,947.5
2019-04-07T15:50:00.705Z,947.8
2019-04-07T16:00:05.754Z,947.8
2019-04-07T16:10:10.179Z,947.9
2019-04-07T16:20:39.991Z,948.1
2019-04-07T16:30:52.178Z,948.3
2019-04-07T16:40:56.172Z,948.4
2019-04-07T16:51:03.538Z,948.5
2019-04-07T17:01:08.002Z,948.7
2019-04-07T17:11:11.337Z,948.9
2019-04-07T17:21:16.221Z,949
2019-04-07T17:31:19.573Z,949.2
2019-04-07T17:41:23.730Z,949.5
2019-04-07T17:51:28.825Z,949.8
2019-04-07T18:01:32.317Z,949.8
2019-04-07T18:11:35.653Z,950.1
2019-04-07T18:21:39.926Z,950.4
2019-04-07T18:31:43.829Z,950.6
2019-04-07T18:41:47.224Z,950.8
2019-04-07T18:51:51.929Z,950.9
2019-04-07T19:01:55.976Z,951.1
2019-04-07T19:12:21.994Z,951.2
2019-04-07T19:22:26.276Z,951.4
2019-04-07T19:32:29.612Z,951.7
2019-04-07T19:42:48.520Z,951.7
2019-04-07T19:52:52.655Z,952
2019-04-07T20:02:55.993Z,952.1
2019-04-07T20:12:59.327Z,952.2
2019-04-07T20:23:04.691Z,952.3
2019-04-07T20:33:08.030Z,952.2
2019-04-07T20:43:12.552Z,952.3
2019-04-07T20:53:31.321Z,952.5
2019-04-07T21:03:36.317Z,952.6
2019-04-07T21:13:39.757Z,952.5
2019-04-07T21:23:48.063Z,952.6
2019-04-07T21:33:57.930Z,952.5
2019-04-07T21:44:02.017Z,952.5
2019-04-07T21:54:05.903Z,952.7
2019-04-07T22:04:09.264Z,952.7
2019-04-07T22:14:12.740Z,952.8
2019-04-07T22:24:16.110Z,953
2019-04-07T22:34:19.458Z,953.1
2019-04-07T22:44:24.629Z,953.2
2019-04-07T22:54:31.552Z,953.3
2019-04-07T23:04:34.887Z,953.5
2019-04-07T23:14:38.221Z,953.4
2019-04-07T23:24:41.535Z,953.4
2019-04-07T23:34:45.920Z,953.5
2019-04-07T23:44:50.140Z,953.8
2019-04-07T23:54:54.808Z,953.7
